New Hampshire Logo

Dover, NH Single Family Real Estate Listings

109 Total Real Estate Listings * Click on table heading to sort
Date Posted Property Type Style Address Price Living Area Lot Size Price/Sq Ft.
2019-08-15 Single Family Ranch 30 Cielo Dover, NH 03820 $376,900 1,780 sq. ft. $212
2019-08-15 Single Family Ranch 15 Cielo Dover, NH 03820 $367,900 1,534 sq. ft. $240
2019-08-15 Single Family Cape 5 Penny Dover, NH 03820 $429,900 2,264 sq. ft. 14,810 sq. ft. $190
2019-08-14 Single Family Cape 86 Columbus Dover, NH 03820 $299,900 1,414 sq. ft. 40,075 sq. ft. $212
2019-08-13 Single Family Cape 142 Sixth Dover, NH 03820 $309,900 1,380 sq. ft. 15,682 sq. ft. $225
2019-08-13 Single Family Colonial; New Englander 137 Henry Law Dover, NH 03820 $330,000 1,846 sq. ft. 12,197 sq. ft. $179
2019-08-13 Single Family Ranch 2 Cornerstone Dover, NH 03820 $259,900 1,000 sq. ft. 30,492 sq. ft. $260
2019-08-12 Single Family Ranch 14 Spruce Drive Dover, NH 03820 $249,900 1,165 sq. ft. 8,712 sq. ft. $215
2019-08-12 Single Family Colonial 29 Spruce Dover, NH 03820 $449,900 2,208 sq. ft. 59,677 sq. ft. $204
2019-08-10 Single Family Split Level 6 Kennedy Circle Dover, NH 03820 $305,900 1,884 sq. ft. 19,602 sq. ft. $162
2019-08-09 Single Family Ranch 5 Cheyenne Dover, NH 03820 $229,000 1,510 sq. ft. 11,326 sq. ft. $152
2019-08-09 Single Family Colonial 165 Dover Point Dover, NH 03820 $389,900 2,299 sq. ft. 27,007 sq. ft. $170
2019-08-09 Single Family Ranch 1 Austin Dover, NH 03820 $259,900 1,820 sq. ft. 10,454 sq. ft. $143
2019-08-08 Single Family Cape 25 Piscataqua Dover, NH 03820 $699,900 1,545 sq. ft. 465,656 sq. ft. $453
2019-08-08 Single Family Bungalow 42 Pearl Dover, NH 03820 $299,999 1,574 sq. ft. 7,405 sq. ft. $191
2019-08-08 Single Family Colonial 9 Grandview Dover, NH 03820 $489,900 2,718 sq. ft. 48,787 sq. ft. $180
2019-08-07 Single Family Contemporary; Craftsman 18 Wisteria Dover, NH 03820 $949,000 3,327 sq. ft. 52,272 sq. ft. $285
2019-08-07 Single Family Colonial 12 Basils Dover, NH 03820 $457,900 3,020 sq. ft. 41,382 sq. ft. $152
2019-08-07 Single Family Colonial 33 Cardinal Dover, NH 03820 $519,900 1,926 sq. ft. 13,068 sq. ft. $270
2019-08-07 Single Family Cape 196A Dover Point Dover, NH 03820 $1,300,000 4,466 sq. ft. 218,236 sq. ft. $291
2019-08-07 Single Family Colonial 35A Piscataqua Dover, NH 03820 $422,900 2,600 sq. ft. 39,640 sq. ft. $163
2019-08-06 Single Family Colonial 178 County Farm Dover, NH 03820 $769,000 4,196 sq. ft. 130,680 sq. ft. $183
2019-08-06 Single Family Cape 6 Olive Meadow Dover, NH 03820 $499,900 1,925 sq. ft. 43,560 sq. ft. $260
2019-08-06 Single Family Contemporary; Tri-Level; Walkout Lower Level 74 Childs Dover, NH 03820 $975,000 4,158 sq. ft. 30,492 sq. ft. $234
2019-08-06 Single Family Bungalow; Cape 38 Wisteria Dover, NH 03820 $995,000 5,453 sq. ft. 54,014 sq. ft. $182
2019-08-06 Single Family Cape 29 Sandpiper Dover, NH 03820 $554,900 4,022 sq. ft. 209,959 sq. ft. $138
2019-08-06 Single Family Cape 8 Country Club Estates Dover, NH 03820 $659,900 2,758 sq. ft. 80,150 sq. ft. $239
2019-08-06 Single Family Contemporary 197 Spur Dover, NH 03820 $745,000 2,484 sq. ft. 33,541 sq. ft. $300
2019-08-06 Single Family Bungalow Lot 16 Garrison Cove Dover, NH 03802 $749,900 2,948 sq. ft. 23,087 sq. ft. $254
2019-08-06 Single Family Colonial 76 Upper Factory Dover, NH 03820 $639,900 3,628 sq. ft. 43,560 sq. ft. $176
2019-08-06 Single Family Bungalow Lot 14 Garrison Cove Dover, NH 03820 $699,900 2,521 sq. ft. 20,909 sq. ft. $278
2019-08-06 Single Family Colonial 18 Schooner Dover, NH 03820 $749,900 2,754 sq. ft. 20,038 sq. ft. $272
2019-08-06 Single Family Colonial 408 Back Dover, NH 03820 $494,900 3,162 sq. ft. 87,120 sq. ft. $157
2019-08-06 Single Family Craftsman 22 Campfire Dover, NH 03820 $510,000 2,447 sq. ft. 148,104 sq. ft. $208
2019-08-06 Single Family Colonial 19 Baldwin Dover, NH 03820 $524,900 3,414 sq. ft. 25,700 sq. ft. $154
2019-08-06 Single Family Cape 20 Governor Sawyer Dover, NH 03820 $639,900 3,684 sq. ft. 42,689 sq. ft. $174
2019-08-06 Single Family Ranch; Walkout Lower Level 29 Foster's Dover, NH 03820 $2,250,000 5,858 sq. ft. 153,767 sq. ft. $384
2019-08-06 Single Family Contemporary 6 Cullen Bay Dover, NH 03820 $2,595,000 6,307 sq. ft. 566,280 sq. ft. $411
2019-08-06 Single Family Contemporary; Ranch 28 Childs Dover, NH 03820 $895,000 2,612 sq. ft. 22,651 sq. ft. $343
2019-08-06 Single Family Colonial 11 Boxwood Dover, NH 03820 $490,000 3,376 sq. ft. 47,916 sq. ft. $145
2019-08-06 Single Family Cape 41 Three Rivers Farm Dover, NH 03820 $1,500,000 4,908 sq. ft. 544,500 sq. ft. $306
2019-08-06 Single Family Colonial Lot 25 Emerald Dover, NH 03820 $494,900 2,370 sq. ft. 19,602 sq. ft. $209
2019-08-06 Single Family Ranch 13 Boston Harbor Dover, NH 03820 $594,900 1,438 sq. ft. 12,197 sq. ft. $414
2019-08-06 Single Family Ranch; Split Level 13 Riverside Dover, NH 03820 $849,000 2,358 sq. ft. 58,806 sq. ft. $360
2019-08-06 Single Family Ranch Lot 28 Emerald Dover, NH 03820 $467,900 1,604 sq. ft. 27,443 sq. ft. $292
2019-08-06 Single Family Colonial 18 Rosanna Dr Dover, NH 03820 $429,900 3,024 sq. ft. 10,890 sq. ft. $142
2019-08-06 Single Family Colonial 16 Summer Dover, NH 03820 $419,900 3,184 sq. ft. 6,970 sq. ft. $132
2019-08-06 Single Family Contemporary; Farmhouse 11 Iona Dover, NH 03820 $450,000 2,300 sq. ft. 14,810 sq. ft. $196
2019-08-06 Single Family Victorian 35 Cushing Dover, NH 03820 $450,000 2,882 sq. ft. 14,375 sq. ft. $156
2019-08-06 Single Family Garrison; W/Addition 3 Erik Dover, NH 03820 $449,900 3,332 sq. ft. 56,628 sq. ft. $135
2019-08-06 Single Family Cape 72 Willow Dover, NH 03820 $375,000 1,754 sq. ft. 9,583 sq. ft. $214
2019-08-06 Single Family Colonial; Garrison 18 Basils Dover, NH 03820 $399,900 3,201 sq. ft. 45,302 sq. ft. $125
2019-08-06 Single Family Bungalow Lot 4 Beaumont Drive Dover, NH 03820 $389,900 1,079 sq. ft. 10,890 sq. ft. $361
2019-08-06 Single Family Ranch Lot 3 Beaumont Dover, NH 03820 $388,000 1,224 sq. ft. 9,148 sq. ft. $317
2019-08-06 Single Family Cape 519 Sixth Dover, NH 03820 $374,900 2,303 sq. ft. 50,965 sq. ft. $163
2019-08-06 Single Family Colonial; Saltbox 1 Samuel Hanson Dover, NH 03820 $350,000 2,777 sq. ft. 15,682 sq. ft. $126
2019-08-06 Single Family Ranch 32 Old Stage Dover, NH 03820 $399,900 2,826 sq. ft. 25,265 sq. ft. $142
2019-08-06 Single Family Saltbox 66 Watson Dover, NH 03820 $359,999 2,284 sq. ft. 60,548 sq. ft. $158
2019-08-06 Single Family Split Level 3 Wildewood Dover, NH 03820 $359,000 2,706 sq. ft. 50,094 sq. ft. $133
2019-08-06 Single Family Colonial 34 Mount Vernon Dover, NH 03820 $349,900 2,048 sq. ft. 23,958 sq. ft. $171
2019-08-06 Single Family Ranch 67 Toftree Dover, NH 03820 $329,900 2,316 sq. ft. 20,038 sq. ft. $142
2019-08-06 Single Family Colonial; Contemporary 19 Littleworth Dover, NH 03820 $334,000 2,175 sq. ft. 20,038 sq. ft. $154
2019-08-06 Single Family Raised Ranch 90 Back River Dover, NH 03820 $290,000 1,533 sq. ft. 20,909 sq. ft. $189
2019-08-06 Single Family New Englander 5 South Pine Dover, NH 03820 $284,900 1,462 sq. ft. 7,405 sq. ft. $195
2019-08-06 Single Family Cape; W/Addition 100 Littleworth Dover, NH 03820 $285,000 1,556 sq. ft. 20,038 sq. ft. $183
2019-08-06 Single Family Ranch 33 Old Rochester Dover, NH 03820 $279,900 2,344 sq. ft. 23,087 sq. ft. $119
2019-08-06 Single Family Cape 81 Court Dover, NH 03820 $279,900 1,194 sq. ft. 11,326 sq. ft. $234
2019-08-06 Single Family Cape 15 Old Stage Dover, NH 03820 $286,500 1,836 sq. ft. 16,117 sq. ft. $156
2019-08-06 Single Family Ranch 12 Phillip Dover, NH 03820 $259,000 1,440 sq. ft. 10,890 sq. ft. $180
2019-08-06 Single Family New Englander 6 Hilton Dover, NH 03820 $225,000 928 sq. ft. 16,117 sq. ft. $242
2019-08-06 Single Family Double Wide; Manuf/Mobile 10 Morgan Dover, NH 03820 $180,000 1,296 sq. ft. 29,185 sq. ft. $139
2019-08-05 Single Family Colonial 41 Samuel Hanson Dover, NH 03820 $349,000 2,172 sq. ft. 12,632 sq. ft. $161
2019-08-05 Single Family Single Wide; W/Addition 75 Old Rochester Dover, NH 03820 $149,000 1,089 sq. ft. 36,590 sq. ft. $137
2019-08-05 Single Family Contemporary 5 Trask Dover, NH 03820 $519,000 2,120 sq. ft. 10,019 sq. ft. $245
2019-08-05 Single Family Cape 13 Cote Dover, NH 03820 $649,000 2,492 sq. ft. 14,375 sq. ft. $260
2019-08-05 Single Family Colonial 26 Gladiola Dover, NH 03820 $464,900 3,693 sq. ft. 23,522 sq. ft. $126
2019-08-05 Single Family Antique; Colonial 81 Littleworth Dover, NH 03820 $425,000 2,624 sq. ft. 217,800 sq. ft. $162
2019-08-05 Single Family New Englander 28 Bellamy Dover, NH 03820 $399,900 2,992 sq. ft. 21,780 sq. ft. $134
2019-08-05 Single Family Cape 15 Old Littleworth Dover, NH 03820 $335,000 1,744 sq. ft. 15,246 sq. ft. $192
2019-08-05 Single Family Cape 135 Tolend Rd Dover, NH 03820 $310,000 1,628 sq. ft. 20,038 sq. ft. $190
2019-08-05 Single Family Manuf/Mobile; Ranch 416 Middle Dover, NH 03820 $289,900 1,620 sq. ft. 107,158 sq. ft. $179
2019-08-05 Single Family 38 Broadway Dover, NH 03820 $95,000 842 sq. ft. 2,178 sq. ft. $113
2019-04-16 Single Family Colonial 318 Dover Point Dover, NH 03820 $499,900 2,888 sq. ft. 28,314 sq. ft. $173
2019-04-11 Single Family Cape 145 Durham Dover, NH 03820 $599,000 4,700 sq. ft. 287,496 sq. ft. $127
2019-04-03 Single Family New Englander; Victorian 42 Rutland Dover, NH 03820 $350,000 1,728 sq. ft. 22,216 sq. ft. $203
2019-04-02 Single Family Colonial 21 Falcon Dover, NH 03820 $675,000 3,392 sq. ft. 29,621 sq. ft. $199
2019-03-29 Single Family Cape 4 Winterberry Dover, NH 03820 $785,000 2,598 sq. ft. 43,996 sq. ft. $302
2019-03-29 Single Family Colonial; Walkout Lower Level 45 Wisteria Dover, NH 03820 $875,000 3,438 sq. ft. 49,223 sq. ft. $255
2019-03-29 Single Family Antique; Colonial 46 Back River Dover, NH 03820 $569,900 4,441 sq. ft. 19,602 sq. ft. $128
2019-03-29 Single Family Colonial 32 Lucy Dover, NH 03820 $460,000 2,706 sq. ft. 23,087 sq. ft. $170
2019-03-21 Single Family Adirondack; Ranch; Walkout Lower Level 71 Childs Dover, NH 03820 $885,000 2,368 sq. ft. 25,700 sq. ft. $374
2019-03-18 Single Family Cape 15 Fairway Dover, NH 03820 $929,000 3,542 sq. ft. 97,139 sq. ft. $262
2019-03-11 Single Family Colonial Lot 15 Emerald Dover, NH 03820 $512,900 2,470 sq. ft. 20,473 sq. ft. $208
2019-03-09 Single Family Cape Lot 13 Emerald Dover, NH 03820 $633,956 3,160 sq. ft. 68,825 sq. ft. $201
2019-02-20 Single Family Colonial Lot 29 Emerald Dover, NH 03820 $479,000 2,370 sq. ft. 20,473 sq. ft. $202
2019-02-04 Single Family Colonial 44 Waterloo Dover, NH 03820 $1,495,000 6,457 sq. ft. 56,628 sq. ft. $232
2019-01-31 Single Family Cape; Walkout Lower Level 19 Schooner Dover, NH 03820 $889,000 5,630 sq. ft. 19,602 sq. ft. $158
2019-01-25 Single Family Cape 12 Red Barn Dover, NH 03820 $479,000 2,627 sq. ft. 10,890 sq. ft. $182
2019-01-25 Single Family Cape Lot 2 Beaumont Dover, NH 03820 $399,900 1,397 sq. ft. 10,454 sq. ft. $286
2019-01-25 Single Family New Englander Lot 1 Beaumont Dover, NH 03820 $399,900 1,400 sq. ft. 10,454 sq. ft. $286
2019-01-25 Single Family Cape Lot 11 Beaumont Dover, NH 03820 $399,900 1,400 sq. ft. 9,148 sq. ft. $286
2018-11-09 Single Family Ground Floor; Ranch 192 Dover Point Dover, NH 03820 $1,275,000 7,490 sq. ft. 174,240 sq. ft. $170
2018-11-05 Single Family Colonial 306 Dover Point Dover, NH 03820 $650,000 1,178 sq. ft. 69,696 sq. ft. $552
2018-09-20 Single Family Farmhouse; Walkout Lower Level 2A Country Club Estates Dover, NH 03820 $749,000 4,572 sq. ft. 57,064 sq. ft. $164
2018-09-14 Single Family Colonial 30 Silver Dover, NH 03820 $499,900 3,992 sq. ft. 16,988 sq. ft. $125
2018-09-05 Single Family New Englander 84 Sixth Dover, NH 03820 $349,900 1,820 sq. ft. 73,181 sq. ft. $192
2018-03-29 Single Family Colonial; Contemporary 25 Foster's Dover, NH 03820 $1,099,000 3,766 sq. ft. 94,961 sq. ft. $292
2018-03-08 Single Family Colonial Lot 30 Emerald Dover, NH 03820 $449,900 1,813 sq. ft. 31,363 sq. ft. $248
2017-08-23 Single Family Modified 39 Shore Dover, NH 03820 $1,200,000 3,158 sq. ft. 74,923 sq. ft. $380